Time;durP1;ratioP1;P1;durP2;ratioP2;P2;SDS_P1;SDS_P2;PMS_P1;PMS_P2;Temp;Humidity;BMP_temperature;BMP_pressure;BME280_temperature;BME280_humidity;BME280_pressure;Samples;Min_cycle;Max_cycle;Signal;HPM_P1;HPM_P2
2022/10/06 00:03:47;;;;;;;;;;;;;;;;;;10502750;28;20280;-58
2022/10/06 00:08:49;;;;;;;;;;;;;;;;;;10501330;28;20307;-59
2022/10/06 00:13:51;;;;;;;;;;;;;;;;;;10501027;28;19924;-59
2022/10/06 00:18:55;;;;;;;;;;;;;;;;;;10501788;28;19979;-59
2022/10/06 00:23:57;;;;;;;;;;;;;;;;;;10502223;28;19925;-59
2022/10/06 00:28:59;;;;;;;;;;;;;;;;;;10500660;28;20379;-59
2022/10/06 00:34:01;;;;;;;;;;;;;;;;;;10500854;28;19970;-59
2022/10/06 00:39:03;;;;;;;;;;;;;;;;;;10501410;28;19924;-59
2022/10/06 00:44:05;;;;;;;;;;;;;;;;;;10500384;28;19924;-59
2022/10/06 00:49:07;;;;;;;;;;;;;;;;;;10500542;28;19924;-59
2022/10/06 00:54:09;;;;;;;;;;;;;;;;;;10499915;28;19928;-59
2022/10/06 00:59:11;;;;;;;;;;;;;;;;;;10500791;28;19930;-59
2022/10/06 01:04:14;;;;;;;;;;;;;;;;;;10499637;28;19924;-59
2022/10/06 01:09:16;;;;;;;;;;;;;;;;;;10499726;28;19974;-59
2022/10/06 01:14:18;;;;;;;;;;;;;;;;;;10498494;28;19954;-59
2022/10/06 01:19:20;;;;;;;;;;;;;;;;;;10498536;28;19982;-59
2022/10/06 01:24:22;;;;;;;;;;;;;;;;;;10498416;28;20333;-59
2022/10/06 01:29:24;;;;;;;;;;;;;;;;;;10499838;28;19925;-59
2022/10/06 01:34:27;;;;;;;;;;;;;;;;;;10498512;28;19924;-59
2022/10/06 01:39:29;;;;;;;;;;;;;;;;;;10498466;28;19953;-59
2022/10/06 01:44:31;;;;;;;;;;;;;;;;;;10498651;28;20338;-58
2022/10/06 01:49:33;;;;;;;;;;;;;;;;;;10497723;28;19925;-58
2022/10/06 01:54:35;;;;;;;;;;;;;;;;;;10497878;28;19924;-58
2022/10/06 01:59:37;;;;;;;;;;;;;;;;;;10498222;28;20437;-58
2022/10/06 02:04:39;;;;;;;;;;;;;;;;;;10498162;28;19970;-59
2022/10/06 02:09:41;;;;;;;;;;;;;;;;;;10497257;28;20341;-59
2022/10/06 02:14:43;;;;;;;;;;;;;;;;;;10497893;28;19929;-59
2022/10/06 02:19:45;;;;;;;;;;;;;;;;;;10497310;28;20424;-59
2022/10/06 02:24:48;;;;;;;;;;;;;;;;;;10497817;28;19978;-59
2022/10/06 02:29:50;;;;;;;;;;;;;;;;;;10498342;28;19929;-58
2022/10/06 02:34:52;;;;;;;;;;;;;;;;;;10495572;28;19928;-59
2022/10/06 02:39:54;;;;;;;;;;;;;;;;;;10498160;28;19924;-59
2022/10/06 02:44:58;;;;;;;;;;;;;;;;;;10498087;28;19924;-59
2022/10/06 02:50:00;;;;;;;;;;;;;;;;;;10495540;28;19971;-58
2022/10/06 02:55:03;;;;;;;;;;;;;;;;;;10497009;28;19932;-59
2022/10/06 03:00:06;;;;;;;;;;;;;;;;;;10499395;28;19973;-59
2022/10/06 03:05:08;;;;;;;;;;;;;;;;;;10502996;28;20337;-59
2022/10/06 03:10:10;;;;;;;;;;;;;;;;;;10503631;28;19970;-59
2022/10/06 03:15:12;;;;;;;;;;;;;;;;;;10477186;28;19924;-58
2022/10/06 03:20:14;;;;;;;;;;;;;;;;;;10504451;28;19925;-58
2022/10/06 03:25:16;;;;;;;;;;;;;;;;;;10503192;28;20309;-59
2022/10/06 03:30:18;;;;;;;;;;;;;;;;;;10502823;28;19932;-59
2022/10/06 03:35:20;;;;;;;;;;;;;;;;;;10504083;28;19935;-59
2022/10/06 03:40:22;;;;;;;;;;;;;;;;;;10503366;28;19951;-58
2022/10/06 03:45:24;;;;;;;;;;;;;;;;;;10502380;28;19993;-60
2022/10/06 03:50:26;;;;;;;;;;;;;;;;;;10501978;28;19970;-59
2022/10/06 03:55:28;;;;;;;;;;;;;;;;;;10503384;28;19951;-58
2022/10/06 04:00:30;;;;;;;;;;;;;;;;;;10503228;28;19950;-59
2022/10/06 04:05:32;;;;;;;;;;;;;;;;;;10501668;28;20355;-59
2022/10/06 04:10:34;;;;;;;;;;;;;;;;;;10501367;28;19931;-59
2022/10/06 04:15:36;;;;;;;;;;;;;;;;;;10501147;28;19924;-59
2022/10/06 04:20:38;;;;;;;;;;;;;;;;;;10502470;28;19924;-59
2022/10/06 04:25:40;;;;;;;;;;;;;;;;;;10502275;28;19933;-59
2022/10/06 04:30:42;;;;;;;;;;;;;;;;;;10500111;28;19928;-59
2022/10/06 04:35:44;;;;;;;;;;;;;;;;;;10501953;28;19974;-59
2022/10/06 04:40:46;;;;;;;;;;;;;;;;;;10500562;28;19970;-59
2022/10/06 04:45:48;;;;;;;;;;;;;;;;;;10500583;28;20537;-59
2022/10/06 04:50:50;;;;;;;;;;;;;;;;;;10498274;28;20015;-58
2022/10/06 04:55:52;;;;;;;;;;;;;;;;;;10500911;28;19934;-59
2022/10/06 05:00:55;;;;;;;;;;;;;;;;;;10500150;28;19924;-58
2022/10/06 05:05:57;;;;;;;;;;;;;;;;;;10498558;28;20410;-59
2022/10/06 05:10:59;;;;;;;;;;;;;;;;;;10498592;28;19932;-59
2022/10/06 05:16:01;;;;;;;;;;;;;;;;;;10500099;28;19978;-58
2022/10/06 05:21:03;;;;;;;;;;;;;;;;;;10499358;28;20329;-59
2022/10/06 05:26:07;;;;;;;;;;;;;;;;;;10496755;28;19977;-58
2022/10/06 05:31:09;;;;;;;;;;;;;;;;;;10498090;28;20080;-59
2022/10/06 05:36:11;;;;;;;;;;;;;;;;;;10499481;28;19974;-58
2022/10/06 05:41:13;;;;;;;;;;;;;;;;;;10497596;28;19925;-58
2022/10/06 05:46:19;;;;;;;;;;;;;;;;;;10498613;28;19925;-58
2022/10/06 05:51:21;;;;;;;;;;;;;;;;;;10498011;28;19982;-59
2022/10/06 05:56:27;;;;;;;;;;;;;;;;;;10497968;28;20015;-58
2022/10/06 06:01:30;;;;;;;;;;;;;;;;;;10498993;28;19925;-59
2022/10/06 06:06:32;;;;;;;;;;;;;;;;;;10497511;28;20014;-59
2022/10/06 06:11:34;;;;;;;;;;;;;;;;;;10496736;28;19971;-59
2022/10/06 06:16:37;;;;;;;;;;;;;;;;;;10497898;28;19951;-59
2022/10/06 06:21:40;;;;;;;;;;;;;;;;;;10498485;28;19925;-59
2022/10/06 06:26:42;;;;;;;;;;;;;;;;;;10496795;28;20322;-59
2022/10/06 06:31:45;;;;;;;;;;;;;;;;;;10497400;28;19925;-59
2022/10/06 06:36:52;;;;;;;;;;;;;;;;;;10501769;28;19952;-59
2022/10/06 06:41:54;;;;;;;;;;;;;;;;;;10505577;28;19925;-59
2022/10/06 06:46:58;;;;;;;;;;;;;;;;;;10504737;28;19928;-58
2022/10/06 06:52:02;;;;;;;;;;;;;;;;;;10504327;28;19970;-59
2022/10/06 06:57:04;;;;;;;;;;;;;;;;;;10505053;28;19979;-59
2022/10/06 07:02:06;;;;;;;;;;;;;;;;;;10512509;22;19924;-59
2022/10/06 07:07:08;;;;;;;;;;;;;;;;;;10504535;28;19925;-59
2022/10/06 07:12:10;;;;;;;;;;;;;;;;;;10501548;28;19925;-59
2022/10/06 07:27:54;;;;;;;;;;;;;;;;;;10501775;28;19924;-59
2022/10/06 07:32:56;;;;;;;;;;;;;;;;;;10510109;28;19924;-59
2022/10/06 07:37:58;;;;;;;;;;;;;;;;;;10499575;28;19928;-59
2022/10/06 07:43:01;;;;;;;;;;;;;;;;;;10520200;28;20279;-59
2022/10/06 07:48:03;;;;;;;;;;;;;;;;;;10543902;28;20451;-66
2022/10/06 07:53:07;;;;;;;;;;;;;;;;;;10545487;28;19924;-66
2022/10/06 07:58:09;;;;;;;;;;;;;;;;;;10545383;28;19928;-66
2022/10/06 08:03:13;;;;;;;;;;;;;;;;;;10544647;28;19976;-65
2022/10/06 08:08:15;;;;;;;;;;;;;;;;;;10544958;28;19956;-66
2022/10/06 08:13:17;;;;;;;;;;;;;;;;;;10544603;28;19924;-66
2022/10/06 08:18:20;;;;;;;;;;;;;;;;;;10543940;28;19924;-66
2022/10/06 08:23:42;;;;;;;;;;;;;;;;;;10543623;28;20346;-66
2022/10/06 08:28:44;;;;;;;;;;;;;;;;;;10544079;28;19928;-66
2022/10/06 08:33:46;;;;;;;;;;;;;;;;;;10543719;28;19931;-66
2022/10/06 08:38:49;;;;;;;;;;;;;;;;;;10542964;28;19924;-67
2022/10/06 08:43:52;;;;;;;;;;;;;;;;;;10542806;28;19924;-67
2022/10/06 08:48:56;;;;;;;;;;;;;;;;;;10543257;28;19977;-67
2022/10/06 08:53:58;;;;;;;;;;;;;;;;;;10542702;28;19970;-67
2022/10/06 08:59:03;;;;;;;;;;;;;;;;;;10542174;28;20329;-67
2022/10/06 09:04:06;;;;;;;;;;;;;;;;;;10542443;28;19939;-68
2022/10/06 09:09:08;;;;;;;;;;;;;;;;;;10542493;28;19925;-68
2022/10/06 09:14:10;;;;;;;;;;;;;;;;;;10541590;28;19946;-68
2022/10/06 09:19:12;;;;;;;;;;;;;;;;;;10542118;28;19931;-68
2022/10/06 09:24:14;;;;;;;;;;;;;;;;;;10539030;28;19924;-68
2022/10/06 09:29:16;;;;;;;;;;;;;;;;;;10539729;28;19938;-68
2022/10/06 09:34:18;;;;;;;;;;;;;;;;;;10540140;28;19924;-68
2022/10/06 09:39:20;;;;;;;;;;;;;;;;;;10561364;28;19928;-68
2022/10/06 09:44:23;;;;;;;;;;;;;;;;;;10559590;28;19928;-68
2022/10/06 09:49:25;;;;;;;;;;;;;;;;;;10540394;28;19969;-68
2022/10/06 09:54:27;;;;;;;;;;;;;;;;;;10546349;28;20427;-68
2022/10/06 09:59:30;;;;;;;;;;;;;;;;;;10582359;28;19973;-69
2022/10/06 10:04:34;;;;;;;;;;;;;;;;;;10555271;28;20381;-69
2022/10/06 10:09:36;;;;;;;;;;;;;;;;;;10540022;28;19924;-69
2022/10/06 10:14:39;;;;;;;;;;;;;;;;;;10537664;28;19924;-69
2022/10/06 10:19:42;;;;;;;;;;;;;;;;;;10529128;28;20396;-69
2022/10/06 10:24:46;;;;;;;;;;;;;;;;;;10532904;28;19973;-69
2022/10/06 10:29:48;;;;;;;;;;;;;;;;;;10531589;28;19970;-70
2022/10/06 10:34:50;;;;;;;;;;;;;;;;;;10532828;28;19960;-69
2022/10/06 10:39:52;;;;;;;;;;;;;;;;;;10552920;28;20336;-69
2022/10/06 10:44:54;;;;;;;;;;;;;;;;;;10521980;28;19928;-69
2022/10/06 10:49:57;;;;;;;;;;;;;;;;;;10532869;28;19950;-70
2022/10/06 10:54:59;;;;;;;;;;;;;;;;;;10531355;28;20017;-70
2022/10/06 11:00:02;;;;;;;;;;;;;;;;;;10539039;28;20020;-70
2022/10/06 11:05:05;;;;;;;;;;;;;;;;;;10544910;28;19924;-70
2022/10/06 11:10:07;;;;;;;;;;;;;;;;;;10540359;28;19924;-70
2022/10/06 11:15:09;;;;;;;;;;;;;;;;;;10535545;28;19977;-69
2022/10/06 11:20:11;;;;;;;;;;;;;;;;;;10537518;28;19969;-69
2022/10/06 11:25:14;;;;;;;;;;;;;;;;;;10543712;28;20026;-69
2022/10/06 11:30:18;;;;;;;;;;;;;;;;;;10543250;28;20324;-69
2022/10/06 11:35:20;;;;;;;;;;;;;;;;;;10543088;28;19928;-69
2022/10/06 11:40:22;;;;;;;;;;;;;;;;;;10544834;28;19924;-69
2022/10/06 11:45:25;;;;;;;;;;;;;;;;;;10544507;28;19931;-69
2022/10/06 11:50:27;;;;;;;;;;;;;;;;;;10545465;28;19973;-69
2022/10/06 11:55:29;;;;;;;;;;;;;;;;;;10545662;28;19969;-69
2022/10/06 12:00:31;;;;;;;;;;;;;;;;;;10544477;28;19970;-69
2022/10/06 12:05:33;;;;;;;;;;;;;;;;;;10545129;28;19977;-70
2022/10/06 12:10:56;;;;;;;;;;;;;;;;;;10544959;28;20019;-67
2022/10/06 12:15:59;;;;;;;;;;;;;;;;;;10544618;28;19924;-67
2022/10/06 12:21:22;;;;;;;;;;;;;;;;;;10543765;28;20007;-66
2022/10/06 12:26:24;;;;;;;;;;;;;;;;;;10544213;28;19924;-68
2022/10/06 12:31:26;;;;;;;;;;;;;;;;;;10543417;28;19928;-67
2022/10/06 12:36:29;;;;;;;;;;;;;;;;;;10543287;28;19924;-67
2022/10/06 12:41:31;;;;;;;;;;;;;;;;;;10543601;28;19928;-68
2022/10/06 12:46:33;;;;;;;;;;;;;;;;;;10543401;28;19981;-68
2022/10/06 12:51:37;;;;;;;;;;;;;;;;;;10542562;28;20329;-66
2022/10/06 12:56:39;;;;;;;;;;;;;;;;;;10542884;28;19974;-67
2022/10/06 13:01:41;;;;;;;;;;;;;;;;;;10542571;28;19969;-67
2022/10/06 13:06:43;;;;;;;;;;;;;;;;;;10541962;28;19935;-68
2022/10/06 13:11:48;;;;;;;;;;;;;;;;;;10541815;28;19985;-68
2022/10/06 13:16:50;;;;;;;;;;;;;;;;;;10541455;28;19973;-68
2022/10/06 13:21:52;;;;;;;;;;;;;;;;;;10542088;28;19928;-68
2022/10/06 13:26:55;;;;;;;;;;;;;;;;;;10541249;28;19924;-67
2022/10/06 13:31:57;;;;;;;;;;;;;;;;;;10541760;28;19931;-68
2022/10/06 13:37:00;;;;;;;;;;;;;;;;;;10540827;28;20264;-68
2022/10/06 13:42:02;;;;;;;;;;;;;;;;;;10541737;28;19924;-70
2022/10/06 13:47:04;;;;;;;;;;;;;;;;;;10540435;28;19924;-69
2022/10/06 13:52:06;;;;;;;;;;;;;;;;;;10541087;28;19985;-66
2022/10/06 13:57:10;;;;;;;;;;;;;;;;;;10540604;28;19925;-66
2022/10/06 14:02:13;;;;;;;;;;;;;;;;;;10539958;28;20367;-66
2022/10/06 14:07:15;;;;;;;;;;;;;;;;;;10540116;28;19931;-66
2022/10/06 14:12:19;;;;;;;;;;;;;;;;;;10540570;28;19924;-66
2022/10/06 14:17:21;;;;;;;;;;;;;;;;;;10540448;28;19970;-66
2022/10/06 14:22:24;;;;;;;;;;;;;;;;;;10539781;28;19928;-66
2022/10/06 14:27:26;;;;;;;;;;;;;;;;;;10540287;28;19977;-65
2022/10/06 14:32:28;;;;;;;;;;;;;;;;;;10539711;28;20379;-66
2022/10/06 14:37:32;;;;;;;;;;;;;;;;;;10540039;28;19978;-65
2022/10/06 14:42:34;;;;;;;;;;;;;;;;;;10539479;28;19928;-66
2022/10/06 14:47:36;;;;;;;;;;;;;;;;;;10539922;28;19924;-66
2022/10/06 14:52:38;;;;;;;;;;;;;;;;;;10539802;28;19977;-66
2022/10/06 14:57:40;;;;;;;;;;;;;;;;;;10526081;28;19974;-66
2022/10/06 15:02:42;;;;;;;;;;;;;;;;;;10547250;28;19969;-66
2022/10/06 15:13:07;;;;;;;;;;;;;;;;;;10547144;28;19924;-66
2022/10/06 15:18:09;;;;;;;;;;;;;;;;;;10546971;28;19974;-66
2022/10/06 15:23:11;;;;;;;;;;;;;;;;;;10546356;28;20374;-66
2022/10/06 15:33:35;;;;;;;;;;;;;;;;;;10546327;28;19928;-66
2022/10/06 15:38:37;;;;;;;;;;;;;;;;;;10545494;28;19924;-66
2022/10/06 15:43:54;;;;;;;;;;;;;;;;;;10542627;28;20072;-66
2022/10/06 15:49:00;;;;;;;;;;;;;;;;;;10545784;28;19977;-66
2022/10/06 15:54:02;;;;;;;;;;;;;;;;;;10544036;28;19924;-65
2022/10/06 15:59:04;;;;;;;;;;;;;;;;;;10544772;28;19931;-65
2022/10/06 16:04:10;;;;;;;;;;;;;;;;;;10542580;28;19981;-66
2022/10/06 16:09:12;;;;;;;;;;;;;;;;;;10542175;28;19924;-65
2022/10/06 16:14:14;;;;;;;;;;;;;;;;;;10547463;28;19925;-65
2022/10/06 16:19:17;;;;;;;;;;;;;;;;;;10543271;28;20332;-65
2022/10/06 16:24:19;;;;;;;;;;;;;;;;;;10542382;28;19969;-65
2022/10/06 16:29:21;;;;;;;;;;;;;;;;;;10543585;28;19924;-65
2022/10/06 16:34:24;;;;;;;;;;;;;;;;;;10540621;28;19924;-65
2022/10/06 16:39:26;;;;;;;;;;;;;;;;;;10543092;28;19924;-65
2022/10/06 16:44:28;;;;;;;;;;;;;;;;;;10542488;28;19970;-65
2022/10/06 16:49:30;;;;;;;;;;;;;;;;;;10543429;28;19924;-65
2022/10/06 16:54:32;;;;;;;;;;;;;;;;;;10541998;28;19924;-65
2022/10/06 16:59:34;;;;;;;;;;;;;;;;;;10542872;28;19981;-65
2022/10/06 17:04:36;;;;;;;;;;;;;;;;;;10539845;28;19924;-65
2022/10/06 17:09:38;;;;;;;;;;;;;;;;;;10541828;28;20032;-65
2022/10/06 17:14:56;;;;;;;;;;;;;;;;;;10552201;28;19924;-65
2022/10/06 17:19:58;;;;;;;;;;;;;;;;;;10543456;28;19977;-65
2022/10/06 17:25:01;;;;;;;;;;;;;;;;;;10568641;28;20290;-65
2022/10/06 17:30:03;;;;;;;;;;;;;;;;;;10541820;28;19924;-65
2022/10/06 17:35:05;;;;;;;;;;;;;;;;;;10540955;28;20272;-65
2022/10/06 17:40:07;;;;;;;;;;;;;;;;;;10558347;28;19924;-65
2022/10/06 17:45:10;;;;;;;;;;;;;;;;;;10536315;28;19924;-65
2022/10/06 17:50:12;;;;;;;;;;;;;;;;;;10537764;28;19970;-65
2022/10/06 17:55:15;;;;;;;;;;;;;;;;;;10540165;28;20305;-65
2022/10/06 18:00:17;;;;;;;;;;;;;;;;;;10537318;28;19992;-65
2022/10/06 18:05:19;;;;;;;;;;;;;;;;;;10538507;28;19980;-65
2022/10/06 18:15:42;;;;;;;;;;;;;;;;;;10540439;28;19969;-65
2022/10/06 18:20:45;;;;;;;;;;;;;;;;;;10539349;28;19928;-65
2022/10/06 18:25:47;;;;;;;;;;;;;;;;;;10538347;28;19928;-65
2022/10/06 18:30:50;;;;;;;;;;;;;;;;;;10541051;28;20364;-65
2022/10/06 18:35:52;;;;;;;;;;;;;;;;;;10547138;28;19977;-65
2022/10/06 18:41:14;;;;;;;;;;;;;;;;;;10547100;28;20446;-65
2022/10/06 18:51:37;;;;;;;;;;;;;;;;;;10540027;28;20383;-65
2022/10/06 18:56:39;;;;;;;;;;;;;;;;;;10547784;28;19927;-65
2022/10/06 19:01:41;;;;;;;;;;;;;;;;;;10547416;28;19924;-65
2022/10/06 19:06:48;;;;;;;;;;;;;;;;;;10545147;28;19970;-65
2022/10/06 19:11:57;;;;;;;;;;;;;;;;;;10542769;28;20375;-65
2022/10/06 19:16:59;;;;;;;;;;;;;;;;;;10513834;22;19925;-61
2022/10/06 19:22:01;;;;;;;;;;;;;;;;;;10421318;28;19983;-61
2022/10/06 19:27:03;;;;;;;;;;;;;;;;;;10419932;28;19932;-61
2022/10/06 19:32:05;;;;;;;;;;;;;;;;;;10421931;28;19971;-61
2022/10/06 19:37:07;;;;;;;;;;;;;;;;;;10421042;28;19925;-61
2022/10/06 19:47:30;;;;;;;;;;;;;;;;;;10430350;28;19971;-61
2022/10/06 19:52:32;;;;;;;;;;;;;;;;;;10421184;28;19975;-61
2022/10/06 19:57:34;;;;;;;;;;;;;;;;;;10419874;28;19925;-61
2022/10/06 20:02:36;;;;;;;;;;;;;;;;;;10420712;28;19925;-60
2022/10/06 20:07:43;;;;;;;;;;;;;;;;;;10418942;28;20418;-61
2022/10/06 20:12:47;;;;;;;;;;;;;;;;;;10419043;28;19929;-61
2022/10/06 20:17:49;;;;;;;;;;;;;;;;;;10441585;28;19975;-60
2022/10/06 20:22:52;;;;;;;;;;;;;;;;;;10461169;28;19929;-60
2022/10/06 20:27:54;;;;;;;;;;;;;;;;;;10458903;28;19952;-61
2022/10/06 20:32:56;;;;;;;;;;;;;;;;;;10460691;28;19925;-61
2022/10/06 20:37:59;;;;;;;;;;;;;;;;;;10460559;28;19975;-61
2022/10/06 20:43:01;;;;;;;;;;;;;;;;;;10458402;28;19959;-61
2022/10/06 20:48:03;;;;;;;;;;;;;;;;;;10454858;28;19932;-63
2022/10/06 20:53:05;;;;;;;;;;;;;;;;;;10456712;28;20386;-62
2022/10/06 20:58:08;;;;;;;;;;;;;;;;;;10459112;28;19928;-63
2022/10/06 21:03:10;;;;;;;;;;;;;;;;;;10459010;28;20291;-64
2022/10/06 21:08:12;;;;;;;;;;;;;;;;;;10456529;28;20301;-64
2022/10/06 21:13:14;;;;;;;;;;;;;;;;;;10459179;28;19975;-63
2022/10/06 21:18:16;;;;;;;;;;;;;;;;;;10439707;28;19925;-63
2022/10/06 21:23:18;;;;;;;;;;;;;;;;;;10457292;28;20425;-63
2022/10/06 21:28:21;;;;;;;;;;;;;;;;;;10457713;28;20302;-64
2022/10/06 21:33:23;;;;;;;;;;;;;;;;;;10456174;28;20383;-64
2022/10/06 21:38:25;;;;;;;;;;;;;;;;;;10453246;28;19937;-64
2022/10/06 21:43:28;;;;;;;;;;;;;;;;;;10457046;28;19982;-64
2022/10/06 21:48:30;;;;;;;;;;;;;;;;;;10455987;28;19924;-64
2022/10/06 21:53:32;;;;;;;;;;;;;;;;;;10457189;28;19929;-64
2022/10/06 21:58:34;;;;;;;;;;;;;;;;;;10455815;28;19978;-64
2022/10/06 22:03:36;;;;;;;;;;;;;;;;;;10455421;28;19925;-64
2022/10/06 22:08:38;;;;;;;;;;;;;;;;;;10455687;28;19925;-64
2022/10/06 22:13:40;;;;;;;;;;;;;;;;;;10454479;28;19925;-64
2022/10/06 22:18:42;;;;;;;;;;;;;;;;;;10455328;28;19928;-64
2022/10/06 22:23:44;;;;;;;;;;;;;;;;;;10456511;28;20401;-64
2022/10/06 22:28:46;;;;;;;;;;;;;;;;;;10457150;28;19925;-64
2022/10/06 22:33:48;;;;;;;;;;;;;;;;;;10455414;28;20410;-64
2022/10/06 22:38:50;;;;;;;;;;;;;;;;;;10451155;28;19932;-64
2022/10/06 22:43:56;;;;;;;;;;;;;;;;;;10455716;28;19929;-64
2022/10/06 22:48:58;;;;;;;;;;;;;;;;;;10455285;28;20015;-64
2022/10/06 22:54:00;;;;;;;;;;;;;;;;;;10453796;28;20288;-64
2022/10/06 22:59:02;;;;;;;;;;;;;;;;;;10456412;28;19979;-64
2022/10/06 23:04:04;;;;;;;;;;;;;;;;;;10454173;28;20338;-64
2022/10/06 23:09:06;;;;;;;;;;;;;;;;;;10455037;28;20047;-64
2022/10/06 23:14:08;;;;;;;;;;;;;;;;;;10451454;28;20020;-64
2022/10/06 23:19:10;;;;;;;;;;;;;;;;;;10457376;28;19925;-64
2022/10/06 23:24:12;;;;;;;;;;;;;;;;;;10454534;28;19929;-64
2022/10/06 23:29:14;;;;;;;;;;;;;;;;;;10450551;28;19924;-64
2022/10/06 23:34:16;;;;;;;;;;;;;;;;;;10463134;28;19974;-64
2022/10/06 23:39:18;;;;;;;;;;;;;;;;;;10457832;28;19929;-64
2022/10/06 23:44:20;;;;;;;;;;;;;;;;;;10458212;28;20449;-64
2022/10/06 23:49:22;;;;;;;;;;;;;;;;;;10461704;28;19974;-64
2022/10/06 23:54:24;;;;;;;;;;;;;;;;;;10459950;28;19925;-64
2022/10/06 23:59:28;;;;;;;;;;;;;;;;;;10458443;28;20376;-64
